CheckWX is a tool to help pilots better visualize weather data.  It is not intended as a substitute for an official pre-flight weather briefing.

09:23:03 UTC

EGHH TAF
Bournemouth Airport
Bournemouth, United Kingdom
TAF EGHH 250802Z 2509/2518 26012KT 9999 SCT025 TEMPO 2509/2518 27018G28KT 7000 SHRA PROB30 TEMPO 2509/2518 3000 +SHRA SHGS BKN010 BKN020CB

Feb-25@
09:00 UTC

Feb-25 @ 09:00 UTC

Feb-25@
18:00 UTC

Feb-25 @ 18:00 UTC

TAF EGHH 250802Z 2509/2518 26012KT 9999 SCT025
Wind
  • 260° at 12 KTS
Cloud Levels
  • Scattered at 2,500' AGL

Feb-25@
09:00 UTC

Feb-25 @ 09:00 UTC

Feb-25@
18:00 UTC

Feb-25 @ 18:00 UTC

PROB30 TEMPO 2509/2518 3000 +SHRA SHGS BKN010 BKN020CB

Temporary - 30% Likelihood

Temporary - 30% Likelihood during this time.

Conditions
Heavy Rain, Small hail
Cloud Levels
  • Broken at 1,000' AGL
  • Broken at 2,000' AGL

Feb-25@
09:00 UTC

Feb-25 @ 09:00 UTC

Feb-25@
18:00 UTC

Feb-25 @ 18:00 UTC

TEMPO 2509/2518 27018G28KT 7000 SHRA

Temporary

Temporary Changes expected for less than half the time period

Wind
  • 270° at 18 KTS
  • {Gusting to 28 KTS
Conditions
Rain